Sid Moller — WDF9421 — position and weather

sailwx.info

Track history (hours):
 
Tides and Currents Weather Stations Pressure Air Temp Water Temp Dewpoint Dewpoint Depression Visibility Wind Speed Wind Dir Waves Ship Positions

Sid Moller

More information available from US FCC via Universal Licensing System and Coast Guard Vessel Documentation Center.

Last reported at 2014-Jul-24 02:31 UTC. Time now 2014-Jul-26 13:15 UTC.
Position N 29°20' W 094°46'.

Length 27 m; draft 2.7 m.

Type: Towing. MMSI: 367504980.

Date/timePositionNaut miles runAvg speedWind from/ knotsBaromVisibWave heightAir tempDewpointWater temp
2014-Jul-24 02:31N 29°20' W 094°46'2 2.0
2014-Jul-24 01:19N 29°21' W 094°49'0 0.0
2014-Jul-22 05:13N 29°21' W 094°49'0 0.0
2014-Jul-22 04:16N 29°21' W 094°49'0 0.0
2014-Jul-22 03:22N 29°21' W 094°49'8 2.7
2014-Jul-22 00:33N 29°28' W 094°51'7 6.7
2014-Jul-21 23:34N 29°34' W 094°55'6 6.2
2014-Jul-21 22:33N 29°40' W 094°58'6 5.6
2014-Jul-21 21:34N 29°44' W 095°02'3 3.2
2014-Jul-21 20:33N 29°46' W 095°05'1 2.5
2014-Jul-21 20:18N 29°46' W 095°06'0 0.3
2014-Jul-21 19:34N 29°46' W 095°06'0 0.2
2014-Jul-21 18:34N 29°46' W 095°06'1 0.7
2014-Jul-21 17:33N 29°46' W 095°05'0 0.0
2014-Jul-21 16:34N 29°46' W 095°05'0 0.0
2014-Jul-21 15:33N 29°46' W 095°05'2 2.1
2014-Jul-21 14:34N 29°45' W 095°04'5 5.2
2014-Jul-21 13:34N 29°41' W 094°59'6 6.1
2014-Jul-21 12:33N 29°36' W 094°56'7 6.5
2014-Jul-21 11:33N 29°30' W 094°52'  
Track history (hours):
 
Tides and Currents Weather Stations Pressure Air Temp Water Temp Dewpoint Dewpoint Depression Visibility Wind Speed Wind Dir Waves Ship Positions

Sid Moller

More information available from US FCC via Universal Licensing System and Coast Guard Vessel Documentation Center.

Last reported at 2014-Jul-24 02:31 UTC. Time now 2014-Jul-26 13:15 UTC.
Position N 29°20' W 094°46'.

Length 27 m; draft 2.7 m.

Type: Towing. MMSI: 367504980.

Date/timePositionNaut miles runAvg speedWind from/ knotsBaromVisibWave heightAir tempDewpointWater temp
2014-Jul-24 02:31N 29°20' W 094°46'2 2.0
2014-Jul-24 01:19N 29°21' W 094°49'0 0.0
2014-Jul-22 05:13N 29°21' W 094°49'0 0.0
2014-Jul-22 04:16N 29°21' W 094°49'0 0.0
2014-Jul-22 03:22N 29°21' W 094°49'8 2.7
2014-Jul-22 00:33N 29°28' W 094°51'7 6.7
2014-Jul-21 23:34N 29°34' W 094°55'6 6.2
2014-Jul-21 22:33N 29°40' W 094°58'6 5.6
2014-Jul-21 21:34N 29°44' W 095°02'3 3.2
2014-Jul-21 20:33N 29°46' W 095°05'1 2.5
2014-Jul-21 20:18N 29°46' W 095°06'0 0.3
2014-Jul-21 19:34N 29°46' W 095°06'0 0.2
2014-Jul-21 18:34N 29°46' W 095°06'1 0.7
2014-Jul-21 17:33N 29°46' W 095°05'0 0.0
2014-Jul-21 16:34N 29°46' W 095°05'0 0.0
2014-Jul-21 15:33N 29°46' W 095°05'2 2.1
2014-Jul-21 14:34N 29°45' W 095°04'5 5.2
2014-Jul-21 13:34N 29°41' W 094°59'6 6.1
2014-Jul-21 12:33N 29°36' W 094°56'7 6.5
2014-Jul-21 11:33N 29°30' W 094°52'  

Dump ship's entire track history